sensor_id;sensor_type;location;lat;lon;timestamp;pressure;altitude;pressure_sealevel;temperature;humidity
60427;BME280;46274;47.168;27.604;2024-01-30T00:05:58;102353.84;;;-3.44;96.63
60427;BME280;46274;47.168;27.604;2024-01-30T00:12:00;102349.56;;;-3.52;96.62
60427;BME280;46274;47.168;27.604;2024-01-30T00:18:03;102325.00;;;-3.60;96.58
60427;BME280;46274;47.168;27.604;2024-01-30T00:24:05;102346.84;;;-3.93;100.00
60427;BME280;46274;47.168;27.604;2024-01-30T00:30:09;102336.09;;;-3.41;95.25
60427;BME280;46274;47.168;27.604;2024-01-30T00:36:13;102123.53;;;-4.38;92.23
60427;BME280;46274;47.168;27.604;2024-01-30T00:42:15;102291.41;;;-3.58;91.41
60427;BME280;46274;47.168;27.604;2024-01-30T00:48:18;102173.78;;;-4.36;91.62
60427;BME280;46274;47.168;27.604;2024-01-30T00:54:20;102299.44;;;-3.62;91.81
60427;BME280;46274;47.168;27.604;2024-01-30T01:00:24;102299.56;;;-4.15;95.98
60427;BME280;46274;47.168;27.604;2024-01-30T01:06:31;102294.13;;;-4.58;100.00
60427;BME280;46274;47.168;27.604;2024-01-30T01:12:33;102242.47;;;-4.79;100.00
60427;BME280;46274;47.168;27.604;2024-01-30T01:18:35;102273.03;;;-4.13;96.44
60427;BME280;46274;47.168;27.604;2024-01-30T01:24:38;102297.53;;;-4.01;94.51
60427;BME280;46274;47.168;27.604;2024-01-30T01:30:40;102304.78;;;-4.65;98.51
60427;BME280;46274;47.168;27.604;2024-01-30T01:36:43;102291.91;;;-4.86;100.00
60427;BME280;46274;47.168;27.604;2024-01-30T01:42:45;102229.50;;;-4.44;95.98
60427;BME280;46274;47.168;27.604;2024-01-30T01:48:48;102290.28;;;-3.89;92.71
60427;BME280;46274;47.168;27.604;2024-01-30T01:54:51;102245.66;;;-5.16;95.68
60427;BME280;46274;47.168;27.604;2024-01-30T02:00:53;102247.56;;;-4.19;92.61
60427;BME280;46274;47.168;27.604;2024-01-30T02:06:56;102272.81;;;-4.00;90.74
60427;BME280;46274;47.168;27.604;2024-01-30T02:12:58;102250.28;;;-4.73;97.00
60427;BME280;46274;47.168;27.604;2024-01-30T02:19:00;102244.19;;;-4.26;92.18
60427;BME280;46274;47.168;27.604;2024-01-30T02:25:03;102240.03;;;-4.41;93.29
60427;BME280;46274;47.168;27.604;2024-01-30T02:31:05;102271.25;;;-4.10;90.89
60427;BME280;46274;47.168;27.604;2024-01-30T02:37:07;102234.28;;;-4.66;90.41
60427;BME280;46274;47.168;27.604;2024-01-30T02:43:10;102240.78;;;-4.85;90.03
60427;BME280;46274;47.168;27.604;2024-01-30T02:49:12;102271.66;;;-5.49;97.88
60427;BME280;46274;47.168;27.604;2024-01-30T02:55:15;102262.00;;;-4.90;96.71
60427;BME280;46274;47.168;27.604;2024-01-30T03:01:23;102248.75;;;-4.87;94.93
60427;BME280;46274;47.168;27.604;2024-01-30T03:07:27;102182.94;;;-5.62;97.00
60427;BME280;46274;47.168;27.604;2024-01-30T03:13:29;102218.47;;;-5.24;95.29
60427;BME280;46274;47.168;27.604;2024-01-30T03:19:31;102231.72;;;-5.26;94.77
60427;BME280;46274;47.168;27.604;2024-01-30T03:25:33;102204.16;;;-5.10;92.21
60427;BME280;46274;47.168;27.604;2024-01-30T03:31:35;102233.78;;;-4.88;91.37
60427;BME280;46274;47.168;27.604;2024-01-30T03:37:37;102256.53;;;-4.79;90.96
60427;BME280;46274;47.168;27.604;2024-01-30T03:43:39;102207.59;;;-5.06;89.65
60427;BME280;46274;47.168;27.604;2024-01-30T03:49:41;102188.69;;;-5.36;90.62
60427;BME280;46274;47.168;27.604;2024-01-30T03:55:43;102223.34;;;-4.97;89.88
60427;BME280;46274;47.168;27.604;2024-01-30T04:01:46;102194.56;;;-5.15;89.84
60427;BME280;46274;47.168;27.604;2024-01-30T04:07:48;102232.59;;;-5.26;91.91
60427;BME280;46274;47.168;27.604;2024-01-30T04:13:50;102212.16;;;-5.14;90.58
60427;BME280;46274;47.168;27.604;2024-01-30T04:19:52;102226.91;;;-4.99;89.61
60427;BME280;46274;47.168;27.604;2024-01-30T04:25:54;102226.41;;;-5.24;90.31
60427;BME280;46274;47.168;27.604;2024-01-30T04:31:56;102205.41;;;-5.35;89.69
60427;BME280;46274;47.168;27.604;2024-01-30T04:37:58;102228.00;;;-5.78;93.36
60427;BME280;46274;47.168;27.604;2024-01-30T04:44:00;102235.03;;;-5.77;98.08
60427;BME280;46274;47.168;27.604;2024-01-30T04:50:02;102205.31;;;-5.91;96.24
60427;BME280;46274;47.168;27.604;2024-01-30T04:56:07;102232.81;;;-5.41;93.30
60427;BME280;46274;47.168;27.604;2024-01-30T05:02:08;102213.56;;;-5.51;91.66
60427;BME280;46274;47.168;27.604;2024-01-30T05:08:11;102236.31;;;-5.39;91.36
60427;BME280;46274;47.168;27.604;2024-01-30T05:14:13;102212.13;;;-5.75;92.25
60427;BME280;46274;47.168;27.604;2024-01-30T05:20:16;102121.09;;;-6.09;91.70
60427;BME280;46274;47.168;27.604;2024-01-30T05:26:19;102104.34;;;-6.07;91.11
60427;BME280;46274;47.168;27.604;2024-01-30T05:32:20;102104.53;;;-6.21;92.16
60427;BME280;46274;47.168;27.604;2024-01-30T05:38:22;102206.25;;;-5.94;94.58
60427;BME280;46274;47.168;27.604;2024-01-30T05:44:24;102199.81;;;-5.76;93.25
60427;BME280;46274;47.168;27.604;2024-01-30T05:50:26;102199.22;;;-5.95;94.06
60427;BME280;46274;47.168;27.604;2024-01-30T05:56:29;102181.13;;;-6.30;98.12
60427;BME280;46274;47.168;27.604;2024-01-30T06:02:31;102207.72;;;-5.74;95.49
60427;BME280;46274;47.168;27.604;2024-01-30T06:08:33;102195.47;;;-5.81;93.59
60427;BME280;46274;47.168;27.604;2024-01-30T06:14:35;102203.09;;;-5.57;92.14
60427;BME280;46274;47.168;27.604;2024-01-30T06:20:37;102112.41;;;-6.18;90.92
60427;BME280;46274;47.168;27.604;2024-01-30T06:26:39;102202.59;;;-5.86;93.96
60427;BME280;46274;47.168;27.604;2024-01-30T06:32:41;102212.66;;;-5.48;92.81
60427;BME280;46274;47.168;27.604;2024-01-30T06:38:43;102231.72;;;-5.28;94.07
60427;BME280;46274;47.168;27.604;2024-01-30T06:44:45;102189.84;;;-5.54;95.89
60427;BME280;46274;47.168;27.604;2024-01-30T06:50:47;102185.47;;;-5.56;98.32
60427;BME280;46274;47.168;27.604;2024-01-30T06:56:51;102176.41;;;-5.40;100.00
60427;BME280;46274;47.168;27.604;2024-01-30T07:02:53;102197.38;;;-5.28;100.00
60427;BME280;46274;47.168;27.604;2024-01-30T07:08:55;102196.75;;;-4.88;100.00
60427;BME280;46274;47.168;27.604;2024-01-30T07:14:56;102191.03;;;-4.63;100.00
60427;BME280;46274;47.168;27.604;2024-01-30T07:21:01;102149.69;;;-4.67;99.44
60427;BME280;46274;47.168;27.604;2024-01-30T07:27:04;102176.16;;;-4.22;98.27
60427;BME280;46274;47.168;27.604;2024-01-30T07:33:06;102205.38;;;-3.83;98.43
60427;BME280;46274;47.168;27.604;2024-01-30T07:39:08;102179.75;;;-3.83;97.68
60427;BME280;46274;47.168;27.604;2024-01-30T07:45:12;102191.56;;;-3.57;97.89
60427;BME280;46274;47.168;27.604;2024-01-30T07:51:14;102193.00;;;-3.42;98.09
60427;BME280;46274;47.168;27.604;2024-01-30T07:57:17;102187.97;;;-3.16;97.88
60427;BME280;46274;47.168;27.604;2024-01-30T08:03:23;102197.63;;;-3.12;96.43
60427;BME280;46274;47.168;27.604;2024-01-30T08:09:26;102169.72;;;-2.92;98.32
60427;BME280;46274;47.168;27.604;2024-01-30T08:15:28;102186.13;;;-2.42;96.35
60427;BME280;46274;47.168;27.604;2024-01-30T08:21:32;102183.38;;;-2.06;96.33
60427;BME280;46274;47.168;27.604;2024-01-30T08:27:43;102179.28;;;-1.59;96.02
60427;BME280;46274;47.168;27.604;2024-01-30T08:33:47;102173.69;;;-1.78;91.73
60427;BME280;46274;47.168;27.604;2024-01-30T08:39:50;102174.03;;;-1.32;92.37
60427;BME280;46274;47.168;27.604;2024-01-30T08:45:53;102178.22;;;-0.97;92.87
60427;BME280;46274;47.168;27.604;2024-01-30T08:51:55;102177.91;;;-0.61;90.09
60427;BME280;46274;47.168;27.604;2024-01-30T08:57:58;102137.06;;;-0.86;88.30
60427;BME280;46274;47.168;27.604;2024-01-30T09:04:01;102177.34;;;0.28;89.58
60427;BME280;46274;47.168;27.604;2024-01-30T09:10:04;102173.19;;;0.21;86.58
60427;BME280;46274;47.168;27.604;2024-01-30T09:16:07;102168.41;;;0.29;88.03
60427;BME280;46274;47.168;27.604;2024-01-30T09:22:09;102139.06;;;0.53;85.92
60427;BME280;46274;47.168;27.604;2024-01-30T09:28:13;102159.59;;;0.27;82.63
60427;BME280;46274;47.168;27.604;2024-01-30T09:34:15;102071.13;;;0.39;83.01
60427;BME280;46274;47.168;27.604;2024-01-30T09:40:18;102141.03;;;0.92;81.97
60427;BME280;46274;47.168;27.604;2024-01-30T09:46:23;102134.50;;;0.99;82.29
60427;BME280;46274;47.168;27.604;2024-01-30T09:52:30;102081.38;;;1.13;81.34
60427;BME280;46274;47.168;27.604;2024-01-30T09:58:32;102016.56;;;0.69;79.96
60427;BME280;46274;47.168;27.604;2024-01-30T10:04:35;102115.44;;;1.49;77.59
60427;BME280;46274;47.168;27.604;2024-01-30T10:10:37;102080.25;;;1.19;76.68
60427;BME280;46274;47.168;27.604;2024-01-30T10:16:46;102088.53;;;1.72;75.50
60427;BME280;46274;47.168;27.604;2024-01-30T10:22:49;102084.91;;;2.13;75.14
60427;BME280;46274;47.168;27.604;2024-01-30T10:28:52;102026.22;;;1.91;77.47
60427;BME280;46274;47.168;27.604;2024-01-30T10:34:54;102060.19;;;2.08;75.43
60427;BME280;46274;47.168;27.604;2024-01-30T10:41:01;102058.78;;;2.37;74.56
60427;BME280;46274;47.168;27.604;2024-01-30T10:47:07;102052.94;;;2.29;73.18
60427;BME280;46274;47.168;27.604;2024-01-30T10:53:13;102045.28;;;2.57;73.80
60427;BME280;46274;47.168;27.604;2024-01-30T10:59:16;102043.97;;;2.83;74.24
60427;BME280;46274;47.168;27.604;2024-01-30T11:05:27;102034.91;;;3.03;73.39
60427;BME280;46274;47.168;27.604;2024-01-30T11:11:56;102023.56;;;2.46;74.15
60427;BME280;46274;47.168;27.604;2024-01-30T11:18:07;101997.59;;;2.66;73.60
60427;BME280;46274;47.168;27.604;2024-01-30T11:24:11;102015.94;;;2.91;73.48
60427;BME280;46274;47.168;27.604;2024-01-30T11:30:36;102002.88;;;3.35;74.22
60427;BME280;46274;47.168;27.604;2024-01-30T11:36:51;101973.56;;;2.99;74.10
60427;BME280;46274;47.168;27.604;2024-01-30T11:42:55;101986.44;;;3.75;73.26
60427;BME280;46274;47.168;27.604;2024-01-30T11:48:58;101934.84;;;3.38;73.33
60427;BME280;46274;47.168;27.604;2024-01-30T11:55:01;101970.84;;;3.16;73.38
60427;BME280;46274;47.168;27.604;2024-01-30T12:01:03;101964.03;;;3.91;73.39
60427;BME280;46274;47.168;27.604;2024-01-30T12:07:08;101941.38;;;3.65;74.29
60427;BME280;46274;47.168;27.604;2024-01-30T12:13:10;101953.63;;;3.54;74.64
60427;BME280;46274;47.168;27.604;2024-01-30T12:19:27;101973.56;;;3.81;74.81
60427;BME280;46274;47.168;27.604;2024-01-30T12:25:36;101965.75;;;4.24;73.58
60427;BME280;46274;47.168;27.604;2024-01-30T12:31:44;101948.66;;;3.95;72.32
60427;BME280;46274;47.168;27.604;2024-01-30T12:37:49;101941.94;;;4.18;73.04
60427;BME280;46274;47.168;27.604;2024-01-30T12:43:52;101944.47;;;4.21;73.05
60427;BME280;46274;47.168;27.604;2024-01-30T12:49:55;101942.56;;;4.53;72.11
60427;BME280;46274;47.168;27.604;2024-01-30T12:55:57;101937.16;;;4.23;71.62
60427;BME280;46274;47.168;27.604;2024-01-30T13:02:00;101867.75;;;3.87;72.33
60427;BME280;46274;47.168;27.604;2024-01-30T13:08:03;101913.69;;;3.97;73.98
60427;BME280;46274;47.168;27.604;2024-01-30T13:14:10;101853.22;;;3.91;73.05
60427;BME280;46274;47.168;27.604;2024-01-30T13:20:14;101845.38;;;3.88;73.60
60427;BME280;46274;47.168;27.604;2024-01-30T13:26:27;101903.63;;;4.16;73.39
60427;BME280;46274;47.168;27.604;2024-01-30T13:32:36;101902.66;;;4.17;73.68
60427;BME280;46274;47.168;27.604;2024-01-30T13:38:53;101896.94;;;3.77;75.26
60427;BME280;46274;47.168;27.604;2024-01-30T13:44:56;101903.25;;;3.60;75.53
60427;BME280;46274;47.168;27.604;2024-01-30T13:51:02;101887.59;;;3.37;75.56
60427;BME280;46274;47.168;27.604;2024-01-30T13:57:04;101910.31;;;3.45;76.83
60427;BME280;46274;47.168;27.604;2024-01-30T14:03:11;101910.59;;;3.41;76.83
60427;BME280;46274;47.168;27.604;2024-01-30T14:09:13;101908.06;;;3.38;76.54
60427;BME280;46274;47.168;27.604;2024-01-30T14:15:20;101864.97;;;2.93;77.45
60427;BME280;46274;47.168;27.604;2024-01-30T14:21:30;101897.97;;;2.94;77.89
60427;BME280;46274;47.168;27.604;2024-01-30T14:27:35;101888.16;;;2.77;77.76
60427;BME280;46274;47.168;27.604;2024-01-30T14:33:40;101904.28;;;2.93;77.77
60427;BME280;46274;47.168;27.604;2024-01-30T14:39:49;101904.19;;;2.61;77.97
60427;BME280;46274;47.168;27.604;2024-01-30T14:45:53;101895.59;;;2.20;79.63
60427;BME280;46274;47.168;27.604;2024-01-30T14:51:59;101792.56;;;1.60;77.54
60427;BME280;46274;47.168;27.604;2024-01-30T14:58:18;101902.00;;;1.62;81.66
60427;BME280;46274;47.168;27.604;2024-01-30T15:04:25;101903.25;;;1.91;79.12
60427;BME280;46274;47.168;27.604;2024-01-30T15:10:37;101638.91;;;-0.13;80.47
60427;BME280;46274;47.168;27.604;2024-01-30T15:16:41;101702.63;;;0.31;80.07
60427;BME280;46274;47.168;27.604;2024-01-30T15:22:44;101774.38;;;0.75;78.90
60427;BME280;46274;47.168;27.604;2024-01-30T15:28:50;101607.81;;;-0.33;78.56
60427;BME280;46274;47.168;27.604;2024-01-30T15:34:57;101819.47;;;1.19;77.33
60427;BME280;46274;47.168;27.604;2024-01-30T15:41:06;101876.28;;;0.83;80.72
60427;BME280;46274;47.168;27.604;2024-01-30T15:47:09;101915.13;;;0.91;80.79
60427;BME280;46274;47.168;27.604;2024-01-30T15:53:11;101758.50;;;0.14;80.23
60427;BME280;46274;47.168;27.604;2024-01-30T15:59:13;101918.31;;;0.99;79.31
60427;BME280;46274;47.168;27.604;2024-01-30T16:05:15;101689.25;;;-0.27;79.55
60427;BME280;46274;47.168;27.604;2024-01-30T16:11:25;101855.25;;;-0.05;85.40
60427;BME280;46274;47.168;27.604;2024-01-30T16:17:27;101910.16;;;1.02;79.05
60427;BME280;46274;47.168;27.604;2024-01-30T16:23:30;101911.09;;;1.01;78.79
60427;BME280;46274;47.168;27.604;2024-01-30T16:29:32;101887.78;;;-1.10;93.06
60427;BME280;46274;47.168;27.604;2024-01-30T16:35:36;101916.19;;;0.25;83.76
60427;BME280;46274;47.168;27.604;2024-01-30T16:41:47;101909.94;;;0.47;80.90
60427;BME280;46274;47.168;27.604;2024-01-30T16:47:49;101872.25;;;0.13;80.36
60427;BME280;46274;47.168;27.604;2024-01-30T16:53:55;101908.88;;;0.51;79.51
60427;BME280;46274;47.168;27.604;2024-01-30T16:59:59;101900.91;;;-0.81;86.75
60427;BME280;46274;47.168;27.604;2024-01-30T17:06:03;101906.22;;;-1.54;97.67
60427;BME280;46274;47.168;27.604;2024-01-30T17:12:10;101905.13;;;-0.76;93.77
60427;BME280;46274;47.168;27.604;2024-01-30T17:18:15;101905.44;;;-0.16;84.22
60427;BME280;46274;47.168;27.604;2024-01-30T17:24:20;101902.19;;;-1.65;95.37
60427;BME280;46274;47.168;27.604;2024-01-30T17:30:34;101905.31;;;-1.79;98.67
60427;BME280;46274;47.168;27.604;2024-01-30T17:36:38;101918.97;;;-1.13;93.18
60427;BME280;46274;47.168;27.604;2024-01-30T17:42:42;101906.13;;;-0.78;87.53
60427;BME280;46274;47.168;27.604;2024-01-30T17:48:47;101899.81;;;-0.76;85.03
60427;BME280;46274;47.168;27.604;2024-01-30T17:54:53;101904.81;;;-1.39;88.68
60427;BME280;46274;47.168;27.604;2024-01-30T18:00:57;101884.59;;;-0.96;85.34
60427;BME280;46274;47.168;27.604;2024-01-30T18:07:02;101891.91;;;-0.77;84.15
60427;BME280;46274;47.168;27.604;2024-01-30T18:13:05;101854.19;;;-1.12;86.21
60427;BME280;46274;47.168;27.604;2024-01-30T18:19:09;101786.38;;;-1.96;88.52
60427;BME280;46274;47.168;27.604;2024-01-30T18:25:14;101878.66;;;-1.51;94.82
60427;BME280;46274;47.168;27.604;2024-01-30T18:31:19;101830.34;;;-1.39;85.83
60427;BME280;46274;47.168;27.604;2024-01-30T18:37:21;101777.22;;;-1.64;84.73
60427;BME280;46274;47.168;27.604;2024-01-30T18:43:23;101874.19;;;-1.02;83.93
60427;BME280;46274;47.168;27.604;2024-01-30T18:49:26;101874.88;;;-0.97;83.39
60427;BME280;46274;47.168;27.604;2024-01-30T18:55:28;101864.50;;;-1.03;82.65
60427;BME280;46274;47.168;27.604;2024-01-30T19:01:33;101860.94;;;-1.03;81.64
60427;BME280;46274;47.168;27.604;2024-01-30T19:07:35;101848.47;;;-2.00;88.88
60427;BME280;46274;47.168;27.604;2024-01-30T19:13:38;101838.06;;;-1.81;87.42
60427;BME280;46274;47.168;27.604;2024-01-30T19:19:47;101855.47;;;-1.47;84.65
60427;BME280;46274;47.168;27.604;2024-01-30T19:25:50;101817.19;;;-1.92;87.06
60427;BME280;46274;47.168;27.604;2024-01-30T19:31:53;101858.69;;;-1.88;85.89
60427;BME280;46274;47.168;27.604;2024-01-30T19:37:56;101853.84;;;-2.56;97.20
60427;BME280;46274;47.168;27.604;2024-01-30T19:43:59;101767.38;;;-2.64;89.54
60427;BME280;46274;47.168;27.604;2024-01-30T19:50:02;101821.25;;;-1.82;84.92
60427;BME280;46274;47.168;27.604;2024-01-30T19:56:05;101841.00;;;-1.89;87.01
60427;BME280;46274;47.168;27.604;2024-01-30T20:02:07;101834.84;;;-2.43;89.21
60427;BME280;46274;47.168;27.604;2024-01-30T20:08:10;101781.81;;;-2.99;95.35
60427;BME280;46274;47.168;27.604;2024-01-30T20:14:15;101815.94;;;-2.88;97.09
60427;BME280;46274;47.168;27.604;2024-01-30T20:20:18;101824.59;;;-2.27;88.82
60427;BME280;46274;47.168;27.604;2024-01-30T20:26:20;101825.94;;;-2.40;87.38
60427;BME280;46274;47.168;27.604;2024-01-30T20:32:26;101781.31;;;-2.55;86.48
60427;BME280;46274;47.168;27.604;2024-01-30T20:38:29;101818.47;;;-2.55;87.82
60427;BME280;46274;47.168;27.604;2024-01-30T20:44:32;101800.59;;;-3.07;88.96
60427;BME280;46274;47.168;27.604;2024-01-30T20:50:34;101776.00;;;-2.55;85.46
60427;BME280;46274;47.168;27.604;2024-01-30T20:56:36;101761.59;;;-4.26;98.68
60427;BME280;46274;47.168;27.604;2024-01-30T21:02:39;101793.50;;;-3.06;92.06
60427;BME280;46274;47.168;27.604;2024-01-30T21:08:41;101793.28;;;-2.70;87.40
60427;BME280;46274;47.168;27.604;2024-01-30T21:14:44;101747.22;;;-4.16;98.15
60427;BME280;46274;47.168;27.604;2024-01-30T21:20:46;101770.88;;;-3.18;91.83
60427;BME280;46274;47.168;27.604;2024-01-30T21:26:52;101765.56;;;-3.77;97.92
60427;BME280;46274;47.168;27.604;2024-01-30T21:32:56;101676.28;;;-4.69;100.00
60427;BME280;46274;47.168;27.604;2024-01-30T21:38:58;101635.31;;;-4.85;100.00
60427;BME280;46274;47.168;27.604;2024-01-30T21:45:02;101776.94;;;-3.42;96.47
60427;BME280;46274;47.168;27.604;2024-01-30T21:51:05;101736.72;;;-3.27;89.96
60427;BME280;46274;47.168;27.604;2024-01-30T21:57:09;101723.78;;;-3.67;90.77
60427;BME280;46274;47.168;27.604;2024-01-30T22:03:12;101768.03;;;-3.71;95.89
60427;BME280;46274;47.168;27.604;2024-01-30T22:09:14;101744.16;;;-4.33;100.00
60427;BME280;46274;47.168;27.604;2024-01-30T22:15:16;101719.50;;;-3.71;95.71
60427;BME280;46274;47.168;27.604;2024-01-30T22:21:20;101732.88;;;-3.46;92.29
60427;BME280;46274;47.168;27.604;2024-01-30T22:27:23;101582.28;;;-4.80;95.57
60427;BME280;46274;47.168;27.604;2024-01-30T22:33:26;101754.63;;;-3.35;90.26
60427;BME280;46274;47.168;27.604;2024-01-30T22:39:28;101762.09;;;-3.48;89.70
60427;BME280;46274;47.168;27.604;2024-01-30T22:45:31;101736.72;;;-3.57;89.63
60427;BME280;46274;47.168;27.604;2024-01-30T22:51:33;101720.47;;;-3.74;89.61
60427;BME280;46274;47.168;27.604;2024-01-30T22:57:36;101740.59;;;-3.68;89.73
60427;BME280;46274;47.168;27.604;2024-01-30T23:03:39;101694.22;;;-3.83;88.69
60427;BME280;46274;47.168;27.604;2024-01-30T23:09:41;101705.66;;;-3.81;88.76
60427;BME280;46274;47.168;27.604;2024-01-30T23:15:45;101676.03;;;-3.96;88.39
60427;BME280;46274;47.168;27.604;2024-01-30T23:21:47;101646.38;;;-4.07;87.52
60427;BME280;46274;47.168;27.604;2024-01-30T23:27:50;101701.78;;;-5.00;98.89
60427;BME280;46274;47.168;27.604;2024-01-30T23:33:52;101715.59;;;-4.55;99.25
60427;BME280;46274;47.168;27.604;2024-01-30T23:39:54;101694.41;;;-4.88;100.00
60427;BME280;46274;47.168;27.604;2024-01-30T23:45:58;101711.53;;;-4.03;92.37
60427;BME280;46274;47.168;27.604;2024-01-30T23:52:00;101674.94;;;-4.18;89.41
60427;BME280;46274;47.168;27.604;2024-01-30T23:58:02;101692.03;;;-3.99;87.63
